Time;durP1;ratioP1;P1;durP2;ratioP2;P2;SDS_P1;SDS_P2;PMS_P1;PMS_P2;Temp;Humidity;BMP_temperature;BMP_pressure;BME280_temperature;BME280_humidity;BME280_pressure;Samples;Min_cycle;Max_cycle;Signal;HPM_P1;HPM_P2
2023/08/11 00:01:01;;;;;;;4.78;3.90;;;12.40;99.90;;;;;;4989538;28;20041;-82
2023/08/11 00:03:26;;;;;;;4.50;3.38;;;12.40;99.90;;;;;;5003311;28;20380;-80
2023/08/11 00:05:55;;;;;;;3.20;2.97;;;12.40;99.90;;;;;;5001701;28;20105;-82
2023/08/11 00:08:21;;;;;;;3.75;3.45;;;12.40;99.90;;;;;;4997152;28;20038;-79
2023/08/11 00:10:46;;;;;;;3.40;3.10;;;12.40;99.90;;;;;;5002486;28;20034;-83
2023/08/11 00:13:13;;;;;;;3.67;3.25;;;12.30;99.90;;;;;;5007796;28;20030;-82
2023/08/11 00:15:43;;;;;;;3.78;3.47;;;12.30;99.90;;;;;;4985950;28;20033;-82
2023/08/11 00:18:10;;;;;;;3.67;3.10;;;12.30;99.90;;;;;;5004543;28;20038;-81
2023/08/11 00:20:36;;;;;;;3.35;3.05;;;12.30;99.90;;;;;;4988623;28;20022;-81
2023/08/11 00:23:03;;;;;;;3.30;2.95;;;12.30;99.90;;;;;;5002033;28;20014;-81
2023/08/11 00:25:29;;;;;;;4.47;3.50;;;12.20;99.90;;;;;;5005554;28;20049;-83
2023/08/11 00:27:55;;;;;;;7.28;3.33;;;12.30;99.90;;;;;;4989271;28;20034;-81
2023/08/11 00:30:20;;;;;;;3.28;2.90;;;12.20;99.90;;;;;;4986743;28;20027;-83
2023/08/11 00:32:46;;;;;;;4.30;3.20;;;12.20;99.90;;;;;;4989295;28;20042;-82
2023/08/11 00:35:12;;;;;;;3.50;3.20;;;12.20;99.90;;;;;;5001366;28;20038;-82
2023/08/11 00:37:39;;;;;;;3.65;3.35;;;12.20;99.90;;;;;;5009312;28;20078;-82
2023/08/11 00:40:06;;;;;;;4.18;3.40;;;12.20;99.90;;;;;;5005700;28;20109;-82
2023/08/11 00:42:32;;;;;;;3.65;3.35;;;12.20;99.90;;;;;;4983854;28;20046;-82
2023/08/11 00:44:59;;;;;;;5.55;3.03;;;12.20;99.90;;;;;;4987582;28;20038;-82
2023/08/11 00:47:26;;;;;;;3.50;3.20;;;12.20;99.90;;;;;;4987911;28;20691;-80
2023/08/11 00:49:52;;;;;;;3.70;3.00;;;12.10;99.90;;;;;;5003642;28;20030;-82
2023/08/11 00:52:19;;;;;;;3.85;3.17;;;12.10;99.90;;;;;;5000103;28;21721;-83
2023/08/11 00:54:45;;;;;;;3.72;2.90;;;12.10;99.90;;;;;;4997902;28;20059;-80
2023/08/11 00:57:13;;;;;;;4.00;3.53;;;12.10;99.90;;;;;;4982487;28;20042;-81
2023/08/11 00:59:39;;;;;;;5.75;3.78;;;12.00;99.90;;;;;;5003449;28;20034;-81
2023/08/11 01:02:06;;;;;;;3.70;3.40;;;12.00;99.90;;;;;;4999135;28;20693;-81
2023/08/11 01:04:33;;;;;;;4.65;3.45;;;12.00;99.90;;;;;;4983264;28;20443;-82
2023/08/11 01:07:13;;;;;;;3.90;3.08;;;11.90;99.90;;;;;;4967011;28;20042;-82
2023/08/11 01:09:47;;;;;;;4.50;3.65;;;11.90;99.90;;;;;;4998979;28;20491;-81
2023/08/11 01:12:20;;;;;;;3.75;3.45;;;11.90;99.90;;;;;;5000442;28;20031;-81
2023/08/11 01:14:49;;;;;;;4.10;3.70;;;11.80;99.90;;;;;;5002538;28;20064;-82
2023/08/11 01:17:17;;;;;;;3.92;3.53;;;11.80;99.90;;;;;;5001810;28;20527;-82
2023/08/11 01:19:43;;;;;;;3.78;3.42;;;11.70;99.90;;;;;;4995989;28;20035;-82
2023/08/11 01:22:19;;;;;;;4.18;3.42;;;11.70;99.90;;;;;;4978226;28;20452;-82
2023/08/11 01:24:46;;;;;;;4.15;3.83;;;11.70;99.90;;;;;;5001551;28;20042;-81
2023/08/11 01:27:12;;;;;;;8.30;3.80;;;11.60;99.90;;;;;;5000128;28;20046;-82
2023/08/11 01:29:39;;;;;;;4.85;4.35;;;11.60;99.90;;;;;;4989287;28;20070;-82
2023/08/11 01:32:06;;;;;;;4.05;3.70;;;11.60;99.90;;;;;;4998416;28;20050;-82
2023/08/11 01:34:32;;;;;;;4.70;3.83;;;11.60;99.90;;;;;;4988751;28;20053;-81
2023/08/11 01:37:00;;;;;;;7.35;3.80;;;11.50;99.90;;;;;;5002352;28;20117;-79
2023/08/11 01:39:28;;;;;;;4.80;4.10;;;11.50;99.90;;;;;;4993705;28;20027;-80
2023/08/11 01:41:54;;;;;;;5.38;3.70;;;11.40;99.90;;;;;;4985798;28;20041;-81
2023/08/11 01:44:22;;;;;;;6.18;3.67;;;11.40;99.90;;;;;;4979517;28;20085;-81
2023/08/11 01:46:52;;;;;;;5.55;3.60;;;11.30;99.90;;;;;;5002932;28;20034;-82
2023/08/11 01:49:19;;;;;;;4.82;3.78;;;11.30;99.90;;;;;;5001817;28;20042;-82
2023/08/11 01:51:45;;;;;;;4.40;3.78;;;11.30;99.90;;;;;;4984933;28;20026;-82
2023/08/11 01:54:11;;;;;;;4.05;3.70;;;11.30;99.90;;;;;;4979945;28;20046;-80
2023/08/11 01:56:38;;;;;;;3.47;3.17;;;11.30;99.90;;;;;;4982994;28;20034;-82
2023/08/11 01:59:11;;;;;;;4.05;3.70;;;11.30;99.90;;;;;;4967789;28;20055;-81
2023/08/11 02:01:38;;;;;;;4.32;3.92;;;11.20;99.90;;;;;;4971165;28;20466;-82
2023/08/11 02:04:05;;;;;;;4.60;3.95;;;11.20;99.90;;;;;;4962172;28;20051;-82
2023/08/11 02:06:30;;;;;;;5.53;4.15;;;11.20;99.90;;;;;;4988979;28;20177;-81
2023/08/11 02:08:57;;;;;;;3.97;3.53;;;11.20;99.90;;;;;;4958586;28;20038;-79
2023/08/11 02:11:23;;;;;;;5.55;3.75;;;11.20;99.90;;;;;;4994116;28;20054;-81
2023/08/11 02:13:49;;;;;;;5.03;3.78;;;11.20;99.90;;;;;;4972664;28;20035;-81
2023/08/11 02:16:15;;;;;;;4.10;3.50;;;11.10;99.90;;;;;;4995158;28;20026;-82
2023/08/11 02:18:41;;;;;;;4.32;3.58;;;11.10;99.90;;;;;;4988686;28;20031;-80
2023/08/11 02:21:07;;;;;;;4.13;3.72;;;11.10;99.90;;;;;;4956536;28;20038;-79
2023/08/11 02:23:33;;;;;;;4.07;3.67;;;11.00;99.90;;;;;;4974939;28;20558;-81
2023/08/11 02:26:00;;;;;;;5.22;4.20;;;11.10;99.90;;;;;;4975076;28;20027;-82
2023/08/11 02:28:26;;;;;;;5.38;3.92;;;11.00;99.90;;;;;;4979367;28;20038;-81
2023/08/11 02:30:53;;;;;;;7.65;4.18;;;11.00;99.90;;;;;;4981268;28;20027;-78
2023/08/11 02:33:20;;;;;;;6.68;4.20;;;10.90;99.90;;;;;;4970993;28;20112;-81
2023/08/11 02:35:46;;;;;;;9.63;4.50;;;10.90;99.90;;;;;;4991294;28;20037;-81
2023/08/11 02:38:13;;;;;;;4.15;3.75;;;10.90;99.90;;;;;;4976464;28;20083;-81
2023/08/11 02:40:40;;;;;;;7.40;4.10;;;10.90;99.90;;;;;;4975355;28;20030;-83
2023/08/11 02:43:24;;;;;;;4.43;4.03;;;10.90;99.90;;;;;;4971575;28;20053;-81
2023/08/11 02:45:50;;;;;;;4.13;3.72;;;10.90;99.90;;;;;;4975382;28;20030;-80
2023/08/11 02:48:16;;;;;;;5.65;3.60;;;10.80;99.90;;;;;;4983531;28;20034;-79
2023/08/11 02:50:42;;;;;;;4.82;4.22;;;10.80;99.90;;;;;;4984875;28;20113;-79
2023/08/11 02:53:09;;;;;;;4.50;4.10;;;10.80;99.90;;;;;;4955985;28;20042;-81
2023/08/11 02:55:35;;;;;;;6.90;4.30;;;10.80;99.90;;;;;;4989354;28;20070;-81
2023/08/11 02:58:01;;;;;;;5.88;4.68;;;10.80;99.90;;;;;;4967908;28;20530;-81
2023/08/11 03:00:28;;;;;;;5.10;4.60;;;10.80;99.90;;;;;;4993182;28;20030;-81
2023/08/11 03:02:54;;;;;;;4.38;3.97;;;10.70;99.90;;;;;;4995148;28;20148;-81
2023/08/11 03:05:20;;;;;;;4.63;4.22;;;10.70;99.90;;;;;;4979706;28;20046;-79
2023/08/11 03:07:50;;;;;;;4.82;4.20;;;10.70;99.90;;;;;;4985472;28;20030;-80
2023/08/11 03:10:16;;;;;;;7.47;4.97;;;10.70;99.90;;;;;;4967896;28;20034;-77
2023/08/11 03:12:43;;;;;;;5.00;4.50;;;10.70;99.90;;;;;;4966882;28;20030;-83
2023/08/11 03:15:10;;;;;;;4.97;4.57;;;10.60;99.90;;;;;;4969670;28;20030;-81
2023/08/11 03:17:37;;;;;;;4.93;4.45;;;10.60;99.90;;;;;;4981962;28;20121;-81
2023/08/11 03:20:10;;;;;;;6.15;4.80;;;10.60;99.90;;;;;;4980880;28;20031;-81
2023/08/11 03:22:36;;;;;;;5.95;4.40;;;10.60;99.90;;;;;;4997158;28;20027;-81
2023/08/11 03:25:03;;;;;;;5.07;4.45;;;10.50;99.90;;;;;;4995098;28;20034;-80
2023/08/11 03:27:28;;;;;;;6.40;4.72;;;10.50;99.90;;;;;;4975609;28;20125;-80
2023/08/11 03:29:54;;;;;;;5.70;4.65;;;10.50;99.90;;;;;;4959507;28;20145;-81
2023/08/11 03:32:20;;;;;;;5.32;3.95;;;10.50;99.90;;;;;;4976406;28;20038;-80
2023/08/11 03:34:48;;;;;;;4.85;4.35;;;10.50;99.90;;;;;;4973784;28;20030;-81
2023/08/11 03:37:14;;;;;;;6.35;4.22;;;10.50;99.90;;;;;;4987940;28;20058;-80
2023/08/11 03:39:41;;;;;;;7.05;4.88;;;10.50;99.90;;;;;;4996066;28;20471;-81
2023/08/11 03:42:07;;;;;;;5.45;4.07;;;10.50;99.90;;;;;;4972157;28;20081;-81
2023/08/11 03:44:33;;;;;;;4.40;4.00;;;10.50;99.90;;;;;;4950799;28;20046;-81
2023/08/11 03:47:01;;;;;;;4.55;3.83;;;10.50;99.90;;;;;;4975114;28;20049;-81
2023/08/11 03:49:28;;;;;;;3.83;3.53;;;10.50;99.90;;;;;;4970923;28;20037;-81
2023/08/11 03:51:54;;;;;;;5.03;4.05;;;10.50;99.90;;;;;;4977955;28;20039;-81
2023/08/11 03:54:20;;;;;;;4.95;4.45;;;10.50;99.90;;;;;;4971594;28;20089;-81
2023/08/11 03:56:46;;;;;;;4.60;4.20;;;10.50;99.90;;;;;;4973902;28;20030;-80
2023/08/11 03:59:12;;;;;;;5.88;4.35;;;10.50;99.90;;;;;;4970527;28;20089;-79
2023/08/11 04:01:39;;;;;;;5.03;3.95;;;10.50;99.90;;;;;;4984370;28;20042;-84
2023/08/11 04:04:06;;;;;;;6.53;4.63;;;10.50;99.90;;;;;;4972749;28;20038;-81
2023/08/11 04:06:32;;;;;;;6.10;4.85;;;10.50;99.90;;;;;;5003371;28;20065;-81
2023/08/11 04:09:00;;;;;;;5.30;4.43;;;10.40;99.90;;;;;;5002715;28;20101;-81
2023/08/11 04:11:27;;;;;;;5.63;5.05;;;10.50;99.90;;;;;;4975011;28;20044;-80
2023/08/11 04:13:53;;;;;;;5.00;4.50;;;10.40;99.90;;;;;;4985133;28;20030;-80
2023/08/11 04:16:19;;;;;;;4.95;4.55;;;10.40;99.90;;;;;;4989668;28;20361;-82
2023/08/11 04:18:45;;;;;;;5.30;4.80;;;10.40;99.90;;;;;;4984304;28;20023;-81
2023/08/11 04:21:11;;;;;;;4.93;4.35;;;10.40;99.90;;;;;;4987327;28;20091;-79
2023/08/11 04:23:37;;;;;;;5.10;4.60;;;10.40;99.90;;;;;;4974457;28;20074;-81
2023/08/11 04:26:05;;;;;;;4.65;4.15;;;10.40;99.90;;;;;;4984611;28;20042;-80
2023/08/11 04:28:32;;;;;;;4.93;4.50;;;10.40;99.90;;;;;;4969145;28;20038;-82
2023/08/11 04:31:00;;;;;;;5.30;4.43;;;10.40;99.90;;;;;;4968943;28;20034;-81
2023/08/11 04:33:29;;;;;;;5.85;4.32;;;10.40;99.90;;;;;;4951949;28;20038;-82
2023/08/11 04:35:55;;;;;;;4.75;4.20;;;10.40;99.90;;;;;;4964025;28;20037;-81
2023/08/11 04:38:21;;;;;;;4.82;4.43;;;10.40;99.90;;;;;;4974482;28;20034;-81
2023/08/11 04:40:50;;;;;;;6.18;3.90;;;10.40;99.90;;;;;;4972541;28;20062;-80
2023/08/11 04:43:18;;;;;;;3.70;3.33;;;10.50;99.90;;;;;;4967273;28;20034;-79
2023/08/11 04:45:44;;;;;;;4.90;3.63;;;10.50;99.90;;;;;;4972896;28;20034;-79
2023/08/11 04:48:12;;;;;;;3.83;3.53;;;10.40;99.90;;;;;;4970506;28;20045;-79
2023/08/11 04:50:49;;;;;;;4.40;4.00;;;10.50;99.90;;;;;;4969201;28;20118;-80
2023/08/11 04:53:15;;;;;;;4.22;3.83;;;10.50;99.90;;;;;;4969727;28;20068;-80
2023/08/11 04:55:40;;;;;;;4.45;3.83;;;10.50;99.90;;;;;;4986403;28;20030;-79
2023/08/11 04:58:07;;;;;;;4.60;4.10;;;10.50;99.90;;;;;;4968855;28;20041;-79
2023/08/11 05:00:34;;;;;;;8.68;4.57;;;10.50;99.90;;;;;;4981684;28;20026;-81
2023/08/11 05:02:59;;;;;;;4.40;4.00;;;10.60;99.90;;;;;;4972040;28;20026;-82
2023/08/11 05:05:26;;;;;;;7.70;4.88;;;10.60;99.90;;;;;;4968653;28;20158;-79
2023/08/11 05:07:52;;;;;;;4.32;3.92;;;10.60;99.90;;;;;;4980696;28;20483;-79
2023/08/11 05:10:18;;;;;;;6.57;4.20;;;10.70;99.90;;;;;;4984254;28;20049;-80
2023/08/11 05:12:45;;;;;;;5.13;4.63;;;10.70;99.90;;;;;;4989056;28;20034;-81
2023/08/11 05:15:11;;;;;;;5.47;4.07;;;10.70;99.90;;;;;;4968999;28;20071;-79
2023/08/11 05:17:37;;;;;;;5.95;4.95;;;10.80;99.90;;;;;;4965070;28;20046;-80
2023/08/11 05:20:07;;;;;;;6.15;5.55;;;10.80;99.90;;;;;;4985340;28;20254;-79
2023/08/11 05:22:37;;;;;;;10.40;7.95;;;10.90;99.90;;;;;;4986284;28;20106;-81
2023/08/11 05:25:06;;;;;;;9.07;8.10;;;11.00;99.90;;;;;;4957826;28;20058;-82
2023/08/11 05:27:33;;;;;;;10.45;8.73;;;11.10;99.90;;;;;;4987410;28;20026;-82
2023/08/11 05:29:59;;;;;;;10.77;8.68;;;11.20;99.90;;;;;;4991482;28;20120;-82
2023/08/11 05:32:26;;;;;;;8.40;7.63;;;11.30;99.90;;;;;;4986242;28;20486;-82
2023/08/11 05:34:52;;;;;;;8.90;7.45;;;11.40;99.90;;;;;;4991894;28;20042;-81
2023/08/11 05:37:19;;;;;;;10.50;7.25;;;11.60;99.90;;;;;;4972519;28;20518;-79
2023/08/11 05:39:44;;;;;;;8.23;7.40;;;11.80;99.90;;;;;;4993747;28;20066;-82
2023/08/11 05:42:10;;;;;;;8.20;7.05;;;12.10;99.90;;;;;;4983765;28;20058;-80
2023/08/11 05:44:36;;;;;;;9.90;6.60;;;12.30;99.90;;;;;;4968729;28;20069;-79
2023/08/11 05:47:03;;;;;;;7.07;6.38;;;12.50;99.90;;;;;;4987146;28;20110;-80
2023/08/11 05:49:29;;;;;;;11.63;6.78;;;12.80;99.90;;;;;;4985965;28;20038;-81
2023/08/11 05:51:55;;;;;;;6.90;5.50;;;13.00;99.90;;;;;;4987158;28;20097;-79
2023/08/11 05:54:21;;;;;;;7.75;5.47;;;13.30;99.90;;;;;;4990493;28;20464;-82
2023/08/11 05:56:46;;;;;;;8.95;5.95;;;13.60;99.90;;;;;;4968880;28;20126;-79
2023/08/11 05:59:12;;;;;;;6.03;5.38;;;13.80;99.90;;;;;;4986807;28;20090;-80
2023/08/11 06:01:38;;;;;;;6.22;5.63;;;14.00;99.90;;;;;;4981026;28;20029;-80
2023/08/11 06:04:04;;;;;;;7.75;5.30;;;14.20;99.90;;;;;;4988762;28;20035;-82
2023/08/11 06:06:31;;;;;;;5.82;5.10;;;14.50;99.90;;;;;;4985102;28;20081;-81
2023/08/11 06:08:57;;;;;;;6.93;5.00;;;14.80;99.90;;;;;;4987777;28;20045;-82
2023/08/11 06:11:23;;;;;;;5.45;4.93;;;15.10;99.90;;;;;;4971947;28;20042;-81
2023/08/11 06:13:49;;;;;;;5.78;4.38;;;15.40;99.90;;;;;;4986274;28;20019;-81
2023/08/11 06:16:15;;;;;;;6.03;4.15;;;15.70;99.90;;;;;;4986290;28;20129;-81
2023/08/11 06:18:41;;;;;;;5.82;4.28;;;15.90;99.90;;;;;;4986817;28;20111;-81
2023/08/11 06:21:07;;;;;;;5.50;3.78;;;16.20;99.90;;;;;;4991019;28;20089;-80
2023/08/11 06:23:33;;;;;;;5.18;3.97;;;16.50;99.90;;;;;;4991243;28;20035;-80
2023/08/11 06:25:58;;;;;;;3.55;3.25;;;16.70;99.90;;;;;;4996871;28;20026;-81
2023/08/11 06:28:24;;;;;;;3.65;3.20;;;17.00;99.90;;;;;;5000806;28;20151;-82
2023/08/11 06:30:50;;;;;;;5.55;3.50;;;17.20;99.90;;;;;;4988775;28;20133;-83
2023/08/11 06:33:16;;;;;;;4.22;3.33;;;17.50;99.90;;;;;;4981055;28;20459;-80
2023/08/11 06:35:42;;;;;;;5.30;3.63;;;17.80;99.90;;;;;;4983082;28;20023;-83
2023/08/11 06:38:11;;;;;;;8.75;4.28;;;18.00;99.90;;;;;;4990803;28;20090;-81
2023/08/11 06:40:40;;;;;;;7.22;4.30;;;18.20;99.90;;;;;;4987173;28;20097;-82
2023/08/11 06:43:09;;;;;;;4.43;3.70;;;18.30;99.90;;;;;;4993138;28;20052;-82
2023/08/11 06:45:34;;;;;;;4.40;3.20;;;18.30;99.90;;;;;;4996352;28;20027;-80
2023/08/11 06:48:00;;;;;;;8.73;3.70;;;18.50;99.90;;;;;;4988461;28;20030;-84
2023/08/11 06:50:26;;;;;;;5.30;3.35;;;18.80;99.90;;;;;;4991875;28;20041;-83
2023/08/11 06:52:52;;;;;;;4.72;3.97;;;19.00;99.90;;;;;;4968917;28;20031;-84
2023/08/11 06:55:18;;;;;;;5.60;3.55;;;19.20;99.90;;;;;;4988569;28;20035;-81
2023/08/11 06:57:44;;;;;;;7.15;4.10;;;19.20;99.90;;;;;;4987959;28;20104;-85
2023/08/11 07:00:10;;;;;;;10.63;3.83;;;19.20;99.90;;;;;;4993233;28;20034;-83
2023/08/11 07:02:36;;;;;;;3.72;3.35;;;19.20;99.90;;;;;;4996845;28;20039;-83
2023/08/11 07:05:03;;;;;;;4.13;3.72;;;19.40;99.90;;;;;;5000697;28;20056;-81
2023/08/11 07:07:29;;;;;;;3.67;3.38;;;19.40;99.90;;;;;;4998060;28;20069;-82
2023/08/11 07:09:55;;;;;;;3.38;3.08;;;19.50;99.90;;;;;;4988786;28;20045;-83
2023/08/11 07:12:21;;;;;;;4.10;2.60;;;19.40;99.90;;;;;;4986634;28;20118;-81
2023/08/11 07:14:47;;;;;;;4.07;3.13;;;19.30;99.90;;;;;;4972228;28;20030;-82
2023/08/11 07:17:12;;;;;;;4.78;3.20;;;19.50;99.90;;;;;;4991089;28;20030;-83
2023/08/11 07:19:38;;;;;;;4.85;3.17;;;19.80;99.90;;;;;;4987789;28;20057;-81
2023/08/11 07:22:05;;;;;;;3.05;2.72;;;19.80;99.90;;;;;;4985180;28;20050;-80
2023/08/11 07:24:30;;;;;;;3.42;2.47;;;20.00;99.90;;;;;;4966022;28;20046;-82
2023/08/11 07:26:56;;;;;;;8.07;2.97;;;20.20;99.90;;;;;;4990821;28;20315;-79
2023/08/11 07:29:22;;;;;;;3.03;2.72;;;20.40;99.90;;;;;;4992343;28;20053;-80
2023/08/11 07:31:48;;;;;;;3.10;2.80;;;20.60;99.90;;;;;;4986105;28;20095;-81
2023/08/11 07:34:14;;;;;;;4.38;3.15;;;20.70;99.90;;;;;;4984471;28;20092;-80
2023/08/11 07:36:40;;;;;;;3.08;2.50;;;20.80;99.90;;;;;;4966582;28;20472;-81
2023/08/11 07:39:09;;;;;;;2.33;2.13;;;20.90;99.90;;;;;;4968858;28;20034;-83
2023/08/11 07:41:36;;;;;;;3.65;2.80;;;20.90;99.90;;;;;;4985437;28;20100;-80
2023/08/11 07:44:02;;;;;;;3.88;2.40;;;20.90;99.90;;;;;;4983438;28;20496;-80
2023/08/11 07:46:28;;;;;;;2.40;2.20;;;21.00;99.90;;;;;;4967918;28;20079;-83
2023/08/11 07:48:55;;;;;;;3.00;2.75;;;21.10;99.90;;;;;;4985569;28;20077;-81
2023/08/11 07:51:21;;;;;;;3.40;3.20;;;21.00;99.90;;;;;;4987091;28;20603;-81
2023/08/11 07:53:47;;;;;;;2.63;2.42;;;21.00;99.90;;;;;;4981364;28;20043;-80
2023/08/11 07:56:13;;;;;;;2.83;2.63;;;21.00;99.90;;;;;;4987975;28;20031;-80
2023/08/11 07:58:40;;;;;;;4.03;3.30;;;21.10;99.90;;;;;;4984010;28;20027;-80
2023/08/11 08:01:08;;;;;;;2.92;2.70;;;21.10;99.90;;;;;;4985395;28;20057;-78
2023/08/11 08:03:35;;;;;;;3.42;2.42;;;20.90;99.90;;;;;;4970272;28;20542;-79
2023/08/11 08:06:04;;;;;;;4.53;3.10;;;20.90;99.90;;;;;;4991716;28;20027;-81
2023/08/11 08:08:49;;;;;;;6.95;2.80;;;21.00;99.90;;;;;;4988738;28;20394;-80
2023/08/11 08:11:14;;;;;;;3.78;2.60;;;20.80;99.90;;;;;;4987007;28;20046;-80
2023/08/11 08:14:00;;;;;;;2.92;2.63;;;20.70;99.90;;;;;;4976813;28;20070;-79
2023/08/11 08:16:26;;;;;;;2.75;2.20;;;20.80;99.90;;;;;;4988869;28;20558;-80
2023/08/11 08:18:52;;;;;;;2.85;2.33;;;20.90;99.90;;;;;;5005008;28;20018;-82
2023/08/11 08:21:17;;;;;;;3.42;2.53;;;21.10;99.90;;;;;;4994291;28;20687;-80
2023/08/11 08:23:43;;;;;;;5.13;2.70;;;21.30;99.90;;;;;;4986024;28;20097;-80
2023/08/11 08:26:09;;;;;;;4.60;2.60;;;21.50;99.90;;;;;;5000107;28;20117;-79
2023/08/11 08:28:37;;;;;;;3.00;2.55;;;21.70;98.10;;;;;;4996084;28;20042;-82
2023/08/11 08:31:02;;;;;;;2.53;2.30;;;21.80;98.80;;;;;;4997612;28;20062;-78
2023/08/11 08:33:28;;;;;;;4.05;2.67;;;22.00;99.40;;;;;;5002990;28;20034;-79
2023/08/11 08:35:54;;;;;;;3.90;2.70;;;22.10;99.40;;;;;;4990440;28;20027;-84
2023/08/11 08:38:20;;;;;;;3.35;3.00;;;22.10;97.70;;;;;;4978060;28;20504;-83
2023/08/11 08:40:46;;;;;;;3.50;2.85;;;22.00;98.20;;;;;;4990322;28;20089;-80
2023/08/11 08:43:12;;;;;;;3.20;2.30;;;22.00;97.00;;;;;;4971434;28;20034;-82
2023/08/11 08:45:42;;;;;;;2.78;2.33;;;22.10;99.90;;;;;;4987597;28;20027;-81
2023/08/11 08:48:13;;;;;;;3.13;2.20;;;22.00;95.90;;;;;;4985135;28;20042;-81
2023/08/11 08:50:39;;;;;;;4.82;2.35;;;21.90;96.10;;;;;;4986424;28;20031;-79
2023/08/11 08:53:05;;;;;;;2.80;2.33;;;21.90;96.20;;;;;;4973953;28;20431;-81
2023/08/11 08:55:32;;;;;;;3.42;2.50;;;21.90;97.70;;;;;;4994164;28;20101;-80
2023/08/11 08:58:00;;;;;;;4.35;2.40;;;21.90;96.00;;;;;;4987180;28;20035;-85
2023/08/11 09:00:26;;;;;;;4.80;2.55;;;22.00;96.30;;;;;;4998038;28;20258;-83
2023/08/11 09:02:54;;;;;;;3.92;2.05;;;22.00;98.60;;;;;;4981969;28;20582;-83
2023/08/11 09:05:21;;;;;;;5.90;2.65;;;22.10;98.10;;;;;;4982483;28;20038;-82
2023/08/11 09:07:47;;;;;;;3.10;2.20;;;22.10;95.90;;;;;;4987285;28;20041;-80
2023/08/11 09:10:14;;;;;;;4.97;2.30;;;22.20;96.90;;;;;;4991341;28;20046;-82
2023/08/11 09:12:40;;;;;;;2.08;1.50;;;22.30;98.60;;;;;;4988052;28;20122;-80
2023/08/11 09:15:11;;;;;;;1.98;1.83;;;22.40;95.40;;;;;;4990325;28;20078;-81
2023/08/11 09:17:39;;;;;;;3.72;2.20;;;22.40;97.20;;;;;;4993485;28;20072;-80
2023/08/11 09:20:07;;;;;;;2.05;1.85;;;22.50;95.20;;;;;;4992527;28;20045;-81
2023/08/11 09:22:36;;;;;;;1.75;1.65;;;22.50;95.90;;;;;;4994323;28;20035;-82
2023/08/11 09:25:03;;;;;;;2.30;2.10;;;22.60;97.70;;;;;;4991145;28;20026;-80
2023/08/11 09:27:30;;;;;;;2.53;2.00;;;22.60;95.20;;;;;;4990866;28;20097;-79
2023/08/11 09:29:59;;;;;;;3.15;1.85;;;22.70;97.90;;;;;;4985276;28;20384;-83
2023/08/11 09:32:25;;;;;;;2.03;1.65;;;22.70;97.70;;;;;;4986475;28;20097;-81
2023/08/11 09:34:51;;;;;;;2.10;1.90;;;22.70;98.40;;;;;;4983345;28;20571;-80
2023/08/11 09:37:17;;;;;;;2.03;1.50;;;22.70;96.30;;;;;;4971923;28;20041;-81
2023/08/11 09:39:43;;;;;;;3.70;1.88;;;22.70;93.60;;;;;;4984597;28;20105;-83
2023/08/11 09:42:09;;;;;;;2.35;1.65;;;22.80;94.80;;;;;;4968686;28;20107;-79
2023/08/11 09:44:37;;;;;;;2.75;1.80;;;22.80;94.00;;;;;;4989958;28;20127;-83
2023/08/11 09:47:02;;;;;;;2.10;1.60;;;22.80;95.40;;;;;;4985468;28;20035;-84
2023/08/11 09:49:29;;;;;;;3.00;1.83;;;22.80;95.60;;;;;;4975832;28;20053;-88
2023/08/11 09:51:57;;;;;;;2.80;1.85;;;22.90;96.50;;;;;;4973511;28;20030;-79
2023/08/11 09:54:24;;;;;;;3.85;1.92;;;23.00;95.90;;;;;;4977004;28;20591;-79
2023/08/11 09:56:51;;;;;;;2.63;1.85;;;23.10;94.40;;;;;;4987692;28;20033;-81
2023/08/11 09:59:20;;;;;;;2.97;2.25;;;23.10;97.30;;;;;;4990247;28;20037;-79
2023/08/11 10:01:47;;;;;;;3.80;1.80;;;23.10;96.30;;;;;;4983186;28;20083;-81
2023/08/11 10:04:43;;;;;;;3.22;2.08;;;23.00;93.20;;;;;;4988134;28;20045;-84
2023/08/11 10:07:15;;;;;;;3.95;1.80;;;23.10;94.90;;;;;;4980488;28;20515;-82
2023/08/11 10:09:43;;;;;;;3.30;1.80;;;23.10;92.60;;;;;;4987586;28;20435;-83
2023/08/11 10:12:09;;;;;;;12.20;4.18;;;23.10;92.50;;;;;;4988440;28;20940;-83
2023/08/11 10:14:37;;;;;;;4.38;2.28;;;23.00;95.60;;;;;;4982500;28;20359;-80
2023/08/11 10:17:03;;;;;;;4.90;2.38;;;23.00;93.90;;;;;;4990360;28;20069;-78
2023/08/11 10:19:29;;;;;;;4.25;1.95;;;23.00;92.80;;;;;;4980469;28;20045;-83
2023/08/11 10:21:57;;;;;;;2.70;2.00;;;22.90;91.10;;;;;;4987707;28;20055;-80
2023/08/11 10:24:24;;;;;;;4.90;2.28;;;22.90;92.30;;;;;;4987708;28;20034;-77
2023/08/11 10:26:50;;;;;;;4.20;2.22;;;22.90;94.40;;;;;;4988648;28;20046;-79
2023/08/11 10:29:17;;;;;;;1.90;1.60;;;22.90;91.90;;;;;;4986526;28;20030;-81
2023/08/11 10:31:59;;;;;;;1.90;1.75;;;22.90;94.50;;;;;;4977317;28;20042;-80
2023/08/11 10:34:25;;;;;;;6.72;2.85;;;23.00;94.80;;;;;;4985191;28;20458;-82
2023/08/11 10:36:58;;;;;;;5.05;2.28;;;23.10;93.40;;;;;;4971287;28;20085;-78
2023/08/11 10:39:25;;;;;;;5.50;1.95;;;23.10;95.50;;;;;;4987879;28;20034;-80
2023/08/11 10:41:51;;;;;;;2.00;1.80;;;23.20;95.70;;;;;;4987425;28;20045;-82
2023/08/11 10:44:26;;;;;;;3.53;2.03;;;23.30;97.20;;;;;;4984100;28;20122;-81
2023/08/11 10:46:52;;;;;;;2.55;2.10;;;23.30;98.20;;;;;;4972567;28;20065;-80
2023/08/11 10:49:30;;;;;;;3.08;1.95;;;23.20;91.50;;;;;;4991809;28;20039;-79
2023/08/11 10:51:59;;;;;;;1.80;1.70;;;23.20;94.50;;;;;;4986727;28;20464;-78
2023/08/11 10:54:26;;;;;;;3.42;1.73;;;23.20;92.40;;;;;;4970367;28;20039;-80
2023/08/11 10:56:53;;;;;;;3.35;2.08;;;23.30;92.00;;;;;;4983350;28;20030;-79
2023/08/11 10:59:23;;;;;;;2.88;2.10;;;23.40;91.40;;;;;;4989004;28;20030;-77
2023/08/11 11:01:51;;;;;;;2.35;2.00;;;23.40;93.60;;;;;;4988741;28;20038;-82
2023/08/11 11:04:19;;;;;;;3.22;1.65;;;23.50;92.90;;;;;;4985568;28;20109;-83
2023/08/11 11:06:46;;;;;;;2.55;1.98;;;23.50;92.30;;;;;;4982355;28;20038;-79
2023/08/11 11:09:13;;;;;;;2.17;1.98;;;23.60;94.60;;;;;;4984492;28;20030;-81
2023/08/11 11:11:39;;;;;;;4.40;2.05;;;23.60;94.30;;;;;;4967843;28;20068;-81
2023/08/11 11:14:09;;;;;;;2.60;1.70;;;23.70;95.90;;;;;;4983979;28;20022;-78
2023/08/11 11:16:36;;;;;;;3.08;1.80;;;23.70;96.00;;;;;;4993711;28;20041;-80
2023/08/11 11:19:04;;;;;;;2.00;1.90;;;23.70;97.00;;;;;;4988188;28;20042;-79
2023/08/11 11:21:30;;;;;;;2.80;1.90;;;23.70;95.60;;;;;;4990191;28;20097;-82
2023/08/11 11:23:56;;;;;;;2.63;1.90;;;23.80;94.00;;;;;;4991121;28;20026;-82
2023/08/11 11:26:23;;;;;;;2.45;1.55;;;23.80;91.90;;;;;;4984589;28;20045;-78
2023/08/11 11:28:50;;;;;;;2.42;1.98;;;23.80;92.00;;;;;;4992832;28;20034;-79
2023/08/11 11:31:17;;;;;;;2.10;1.90;;;23.80;92.60;;;;;;4988882;28;20470;-81
2023/08/11 11:33:43;;;;;;;2.03;1.83;;;23.90;95.60;;;;;;4985217;28;20034;-81
2023/08/11 11:36:10;;;;;;;3.05;1.40;;;24.00;95.90;;;;;;4989336;28;20018;-82
2023/08/11 11:38:36;;;;;;;2.42;1.80;;;24.00;95.90;;;;;;4983537;28;20031;-81
2023/08/11 11:41:02;;;;;;;1.80;1.70;;;24.10;93.10;;;;;;4990272;28;20497;-79
2023/08/11 11:43:28;;;;;;;2.63;2.00;;;24.20;92.70;;;;;;4988709;28;20027;-81
2023/08/11 11:45:56;;;;;;;1.65;1.55;;;24.30;94.80;;;;;;4982020;28;20492;-81
2023/08/11 11:48:23;;;;;;;2.13;1.58;;;24.30;90.00;;;;;;4990765;28;20050;-81
2023/08/11 11:50:50;;;;;;;2.63;1.80;;;24.40;93.80;;;;;;4988706;28;20027;-81
2023/08/11 11:53:16;;;;;;;1.52;1.42;;;24.40;95.40;;;;;;4990459;28;20495;-81
2023/08/11 11:55:44;;;;;;;2.70;1.80;;;24.50;94.80;;;;;;4993732;28;20031;-80
2023/08/11 11:58:11;;;;;;;1.90;1.73;;;24.50;91.20;;;;;;4992834;28;20616;-80
2023/08/11 12:00:36;;;;;;;4.00;1.70;;;24.60;90.40;;;;;;4994778;28;20022;-84
2023/08/11 12:03:03;;;;;;;2.70;1.80;;;24.60;92.20;;;;;;4994493;28;20169;-80
2023/08/11 12:05:29;;;;;;;1.83;1.60;;;24.70;91.10;;;;;;4991412;28;20181;-78
2023/08/11 12:07:55;;;;;;;1.75;1.48;;;24.70;90.10;;;;;;4984548;28;20034;-82
2023/08/11 12:10:31;;;;;;;2.38;1.77;;;24.80;94.10;;;;;;4992137;28;20038;-79
2023/08/11 12:13:03;;;;;;;1.98;1.50;;;24.90;87.80;;;;;;4989162;28;20046;-78
2023/08/11 12:15:31;;;;;;;1.85;1.70;;;24.90;87.70;;;;;;4972222;28;20736;-82
2023/08/11 12:17:58;;;;;;;2.20;1.85;;;25.00;91.30;;;;;;4980464;28;20392;-78
2023/08/11 12:20:24;;;;;;;1.60;1.50;;;25.00;90.70;;;;;;4971698;28;20042;-81
2023/08/11 12:22:49;;;;;;;1.92;1.60;;;25.10;89.10;;;;;;4972923;28;20042;-81
2023/08/11 12:25:16;;;;;;;2.38;1.55;;;25.20;84.10;;;;;;4984778;28;20073;-80
2023/08/11 12:27:41;;;;;;;1.52;1.42;;;25.20;89.70;;;;;;4990427;28;20047;-80
2023/08/11 12:30:10;;;;;;;1.63;1.27;;;25.30;86.40;;;;;;4982729;28;20026;-79
2023/08/11 12:32:36;;;;;;;2.85;1.70;;;25.30;84.50;;;;;;4985036;28;20040;-79
2023/08/11 12:35:02;;;;;;;1.48;1.38;;;25.40;90.40;;;;;;4967386;28;20022;-80
2023/08/11 12:37:28;;;;;;;1.85;1.35;;;25.50;87.60;;;;;;4988277;28;20046;-79
2023/08/11 12:39:54;;;;;;;1.50;1.40;;;25.70;88.10;;;;;;4992692;28;20184;-82
2023/08/11 12:42:20;;;;;;;3.10;1.27;;;25.80;88.70;;;;;;4984314;28;20030;-77
2023/08/11 12:44:46;;;;;;;1.48;1.38;;;25.90;85.90;;;;;;4987318;28;20407;-81